Commodore Clipper — C6QQ3 — position and weather

sailwx.info

Track history (hours):
 
Tides and Currents Weather Stations Pressure Air Temp Water Temp Dewpoint Dewpoint Depression Visibility Wind Speed Wind Dir Waves Ship Positions

Commodore Clipper

Operator: Condor Marine Services

Last reported at 2017-Jan-23 16:18 UTC. Time now 2017-Jan-23 16:48 UTC.
Position N 49°27' W 002°31'.

Length 130 m; draft 5.2 m.

Type: Ship. MMSI: 308094000.

Date/timePositionNaut miles runAvg speedWind from/ knotsBaromVisibWave heightAir tempDewpointWater temp
2017-Jan-23 16:18N 49°27' W 002°31'1213.8
2017-Jan-23 15:24N 49°32' W 002°14'1515.4
2017-Jan-23 14:24N 49°46' W 002°02'1517.1
2017-Jan-23 13:33N 49°58' W 001°50'1818.0
2017-Jan-23 12:33N 50°12' W 001°34'1918.5
2017-Jan-23 11:32N 50°28' W 001°17'1818.0
2017-Jan-23 10:33N 50°43' W 001°03'6 5.6
2017-Jan-23 09:34N 50°49' W 001°06'0 0.0
2017-Jan-23 08:34N 50°49' W 001°06'0 0.0
2017-Jan-23 07:34N 50°49' W 001°06'0 0.0
2017-Jan-23 06:34N 50°49' W 001°06'0 0.0
2017-Jan-23 05:34N 50°49' W 001°06'0 0.0
2017-Jan-23 04:34N 50°49' W 001°06'0 0.0
2017-Jan-23 03:34N 50°49' W 001°06'0 0.0
2017-Jan-23 02:34N 50°49' W 001°06'0 0.0
2017-Jan-23 01:34N 50°49' W 001°06'0 0.0
2017-Jan-23 00:34N 50°49' W 001°06'0 0.0
2017-Jan-22 23:33N 50°49' W 001°06'0 0.0
2017-Jan-22 22:34N 50°49' W 001°06'0 0.0
2017-Jan-22 21:34N 50°49' W 001°06'0 0.0
2017-Jan-22 20:33N 50°49' W 001°06'0 0.0
2017-Jan-22 19:34N 50°49' W 001°06'0 0.0
2017-Jan-22 18:34N 50°49' W 001°06'0 0.1
2017-Jan-22 17:33N 50°49' W 001°06'0 0.0
2017-Jan-22 16:34N 50°49' W 001°06'0 0.0
2017-Jan-22 15:33N 50°49' W 001°06'0 0.0
2017-Jan-22 14:34N 50°49' W 001°06'0 0.0
2017-Jan-22 13:33N 50°49' W 001°06'0 0.0
2017-Jan-22 12:33N 50°49' W 001°06'0 0.0
2017-Jan-22 11:34N 50°49' W 001°06'0 0.0
2017-Jan-22 10:33N 50°49' W 001°06'0 0.0
2017-Jan-22 09:33N 50°49' W 001°06'0 0.0
2017-Jan-22 08:33N 50°49' W 001°06'0 0.0
2017-Jan-22 07:33N 50°49' W 001°06'0 0.0
2017-Jan-22 06:34N 50°49' W 001°06'6 6.3
2017-Jan-22 05:34N 50°42' W 001°03'1413.9
2017-Jan-22 04:31N 50°29' W 001°13'1312.9
2017-Jan-22 03:34N 50°19' W 001°24'1313.4
2017-Jan-22 02:33N 50°09' W 001°37'1413.8
2017-Jan-22 01:34N 49°57' W 001°49'8 0.6
2017-Jan-21 13:33N 49°50' W 001°55'1515.5
2017-Jan-21 12:33N 50°02' W 001°38'1716.6
2017-Jan-21 11:33N 50°17' W 001°28'1817.4
2017-Jan-21 10:32N 50°31' W 001°12'1515.7
2017-Jan-21 09:34N 50°46' W 001°05'3 2.6
2017-Jan-21 08:34N 50°49' W 001°06'0 0.0
2017-Jan-21 07:33N 50°49' W 001°06'0 0.0
2017-Jan-21 06:34N 50°49' W 001°06'7 6.6
2017-Jan-21 05:34N 50°42' W 001°03'1412.0
2017-Jan-21 04:23N 50°30' W 001°15'1513.1
2017-Jan-21 03:17N 50°18' W 001°27'912.8
2017-Jan-21 02:34N 50°11' W 001°37'1313.3
2017-Jan-21 01:33N 50°01' W 001°50'1313.5
2017-Jan-21 00:34N 49°48' W 001°57'2 0.2
2017-Jan-20 13:33N 49°50' W 001°59'1615.7
2017-Jan-20 12:33N 50°02' W 001°43'1716.6
2017-Jan-20 11:32N 50°15' W 001°28'1717.2
2017-Jan-20 10:32N 50°29' W 001°12'1515.5
2017-Jan-20 09:34N 50°43' W 001°03'5 5.5
2017-Jan-20 08:33N 50°49' W 001°06'0 0.0
2017-Jan-20 07:34N 50°49' W 001°06'0 0.0
2017-Jan-20 06:33N 50°49' W 001°06'7 6.8
2017-Jan-20 05:34N 50°42' W 001°03'1111.0
2017-Jan-20 04:33N 50°33' W 001°12'1310.8
2017-Jan-20 03:18N 50°22' W 001°24'811.2
2017-Jan-20 02:33N 50°15' W 001°31'1312.8
2017-Jan-20 01:33N 50°04' W 001°42'1413.7
2017-Jan-20 00:34N 49°52' W 001°53'1 0.1
2017-Jan-19 13:34N 49°51' W 001°53'1615.9
2017-Jan-19 12:33N 50°05' W 001°41'1916.1
2017-Jan-19 11:24N 50°20' W 001°23'1416.7
2017-Jan-19 10:33N 50°31' W 001°11'1414.1
2017-Jan-19 09:34N 50°45' W 001°05'4 4.0
2017-Jan-19 08:33N 50°49' W 001°06'0 0.0
2017-Jan-19 07:33N 50°49' W 001°06'0 0.0
2017-Jan-19 06:33N 50°49' W 001°06'7 7.0
2017-Jan-19 05:34N 50°42' W 001°02'1413.7
2017-Jan-19 04:31N 50°31' W 001°15'1414.9
2017-Jan-19 03:33N 50°19' W 001°28'1111.4
2017-Jan-19 02:33N 50°09' W 001°37'1212.1
2017-Jan-19 01:33N 49°59' W 001°47'1313.2
2017-Jan-19 00:33N 49°48' W 001°57'18 2.0
2017-Jan-18 15:16N 49°32' W 002°13'1618.5
2017-Jan-18 14:25N 49°46' W 002°01'1416.5
2017-Jan-18 13:33N 49°57' W 001°47'1616.1
2017-Jan-18 12:34N 50°10' W 001°33'1616.0
2017-Jan-18 11:32N 50°24' W 001°19'1515.7
2017-Jan-18 10:34N 50°37' W 001°05'1211.7
2017-Jan-18 09:34N 50°48' W 001°07'1 0.8
2017-Jan-18 08:33N 50°49' W 001°06'0 0.0
2017-Jan-18 07:33N 50°49' W 001°06'0 0.0
2017-Jan-18 06:34N 50°49' W 001°06'7 7.3
2017-Jan-18 05:33N 50°42' W 001°02'1313.3
2017-Jan-18 04:33N 50°31' W 001°14'1210.7
2017-Jan-18 03:27N 50°21' W 001°24'1011.0
2017-Jan-18 02:33N 50°13' W 001°32'1211.6
2017-Jan-18 01:34N 50°03' W 001°42'1312.5
2017-Jan-18 00:34N 49°52' W 001°52'9 0.8
2017-Jan-17 14:08N 49°46' W 002°01'1017.2
2017-Jan-17 13:34N 49°54' W 001°52'1616.2
2017-Jan-17 12:33N 50°07' W 001°38'2115.6
2017-Jan-17 11:14N 50°24' W 001°18'1015.2
2017-Jan-17 10:33N 50°32' W 001°09'1313.4
2017-Jan-17 09:33N 50°46' W 001°05'3 3.1
2017-Jan-17 08:33N 50°49' W 001°06'0 0.0
2017-Jan-17 07:33N 50°49' W 001°06'0 0.0
2017-Jan-17 06:33N 50°49' W 001°06'8 8.0
2017-Jan-17 05:33N 50°41' W 001°03'2912.3
2017-Jan-17 03:10N 50°18' W 001°32'1016.2
2017-Jan-17 02:34N 50°09' W 001°40'1717.4
2017-Jan-17 01:33N 49°54' W 001°53'11 1.1
2017-Jan-16 15:27N 49°45' W 002°02'1819.8
2017-Jan-16 14:33N 49°60' W 001°47'2117.9
2017-Jan-16 13:22N 50°18' W 001°29'1416.9
2017-Jan-16 12:33N 50°29' W 001°16'1616.0
2017-Jan-16 11:34N 50°42' W 001°02'7 7.4
2017-Jan-16 10:34N 50°49' W 001°06'0 0.0
2017-Jan-16 09:33N 50°49' W 001°06'4 4.0
2017-Jan-16 08:34N 50°45' W 001°06'1413.6
2017-Jan-16 07:33N 50°31' W 001°10'1717.1
2017-Jan-16 06:33N 50°17' W 001°25'1515.2
2017-Jan-16 05:33N 50°05' W 001°40'1414.2
2017-Jan-16 04:34N 49°54' W 001°52'26 1.8
2017-Jan-15 14:31N 49°31' W 002°11'1718.0
2017-Jan-15 13:33N 49°47' W 001°60'1717.5
2017-Jan-15 12:34N 50°01' W 001°45'1615.9
2017-Jan-15 11:33N 50°14' W 001°30'1514.9
2017-Jan-15 10:31N 50°27' W 001°16'1414.4
2017-Jan-15 09:33N 50°39' W 001°05'1010.0
2017-Jan-15 08:33N 50°49' W 001°06'0 0.0
2017-Jan-15 07:34N 50°49' W 001°06'0 0.2
2017-Jan-15 06:34N 50°49' W 001°06'7 7.3
2017-Jan-15 05:33N 50°42' W 001°01'1413.8
2017-Jan-15 04:31N 50°30' W 001°12'1211.3
2017-Jan-15 03:27N 50°22' W 001°26'910.3
2017-Jan-15 02:34N 50°13' W 001°31'1010.2
2017-Jan-15 01:34N 50°05' W 001°40'1110.9
2017-Jan-15 00:34N 49°56' W 001°50'12 1.2
2017-Jan-14 14:09N 49°46' W 002°01'1220.1
2017-Jan-14 13:33N 49°56' W 001°51'1918.5
2017-Jan-14 12:33N 50°11' W 001°34'2117.0
2017-Jan-14 11:21N 50°28' W 001°16'1215.8
2017-Jan-14 10:33N 50°39' W 001°05'10 9.9
2017-Jan-14 09:33N 50°49' W 001°06'0 0.0
2017-Jan-14 08:33N 50°49' W 001°06'0 0.0
2017-Jan-14 07:34N 50°49' W 001°06'4 4.5
2017-Jan-14 06:34N 50°44' W 001°04'1914.5
2017-Jan-14 05:14N 50°27' W 001°16'1115.6
2017-Jan-14 04:33N 50°18' W 001°26'1414.4
2017-Jan-14 03:34N 50°06' W 001°39'  
Track history (hours):
 
Tides and Currents Weather Stations Pressure Air Temp Water Temp Dewpoint Dewpoint Depression Visibility Wind Speed Wind Dir Waves Ship Positions

Commodore Clipper

Operator: Condor Marine Services

Last reported at 2017-Jan-23 16:18 UTC. Time now 2017-Jan-23 16:48 UTC.
Position N 49°27' W 002°31'.

Length 130 m; draft 5.2 m.

Type: Ship. MMSI: 308094000.

Date/timePositionNaut miles runAvg speedWind from/ knotsBaromVisibWave heightAir tempDewpointWater temp
2017-Jan-23 16:18N 49°27' W 002°31'1213.8
2017-Jan-23 15:24N 49°32' W 002°14'1515.4
2017-Jan-23 14:24N 49°46' W 002°02'1517.1
2017-Jan-23 13:33N 49°58' W 001°50'1818.0
2017-Jan-23 12:33N 50°12' W 001°34'1918.5
2017-Jan-23 11:32N 50°28' W 001°17'1818.0
2017-Jan-23 10:33N 50°43' W 001°03'6 5.6
2017-Jan-23 09:34N 50°49' W 001°06'0 0.0
2017-Jan-23 08:34N 50°49' W 001°06'0 0.0
2017-Jan-23 07:34N 50°49' W 001°06'0 0.0
2017-Jan-23 06:34N 50°49' W 001°06'0 0.0
2017-Jan-23 05:34N 50°49' W 001°06'0 0.0
2017-Jan-23 04:34N 50°49' W 001°06'0 0.0
2017-Jan-23 03:34N 50°49' W 001°06'0 0.0
2017-Jan-23 02:34N 50°49' W 001°06'0 0.0
2017-Jan-23 01:34N 50°49' W 001°06'0 0.0
2017-Jan-23 00:34N 50°49' W 001°06'0 0.0
2017-Jan-22 23:33N 50°49' W 001°06'0 0.0
2017-Jan-22 22:34N 50°49' W 001°06'0 0.0
2017-Jan-22 21:34N 50°49' W 001°06'0 0.0
2017-Jan-22 20:33N 50°49' W 001°06'0 0.0
2017-Jan-22 19:34N 50°49' W 001°06'0 0.0
2017-Jan-22 18:34N 50°49' W 001°06'0 0.1
2017-Jan-22 17:33N 50°49' W 001°06'0 0.0
2017-Jan-22 16:34N 50°49' W 001°06'0 0.0
2017-Jan-22 15:33N 50°49' W 001°06'0 0.0
2017-Jan-22 14:34N 50°49' W 001°06'0 0.0
2017-Jan-22 13:33N 50°49' W 001°06'0 0.0
2017-Jan-22 12:33N 50°49' W 001°06'0 0.0
2017-Jan-22 11:34N 50°49' W 001°06'0 0.0
2017-Jan-22 10:33N 50°49' W 001°06'0 0.0
2017-Jan-22 09:33N 50°49' W 001°06'0 0.0
2017-Jan-22 08:33N 50°49' W 001°06'0 0.0
2017-Jan-22 07:33N 50°49' W 001°06'0 0.0
2017-Jan-22 06:34N 50°49' W 001°06'6 6.3
2017-Jan-22 05:34N 50°42' W 001°03'1413.9
2017-Jan-22 04:31N 50°29' W 001°13'1312.9
2017-Jan-22 03:34N 50°19' W 001°24'1313.4
2017-Jan-22 02:33N 50°09' W 001°37'1413.8
2017-Jan-22 01:34N 49°57' W 001°49'8 0.6
2017-Jan-21 13:33N 49°50' W 001°55'1515.5
2017-Jan-21 12:33N 50°02' W 001°38'1716.6
2017-Jan-21 11:33N 50°17' W 001°28'1817.4
2017-Jan-21 10:32N 50°31' W 001°12'1515.7
2017-Jan-21 09:34N 50°46' W 001°05'3 2.6
2017-Jan-21 08:34N 50°49' W 001°06'0 0.0
2017-Jan-21 07:33N 50°49' W 001°06'0 0.0
2017-Jan-21 06:34N 50°49' W 001°06'7 6.6
2017-Jan-21 05:34N 50°42' W 001°03'1412.0
2017-Jan-21 04:23N 50°30' W 001°15'1513.1
2017-Jan-21 03:17N 50°18' W 001°27'912.8
2017-Jan-21 02:34N 50°11' W 001°37'1313.3
2017-Jan-21 01:33N 50°01' W 001°50'1313.5
2017-Jan-21 00:34N 49°48' W 001°57'2 0.2
2017-Jan-20 13:33N 49°50' W 001°59'1615.7
2017-Jan-20 12:33N 50°02' W 001°43'1716.6
2017-Jan-20 11:32N 50°15' W 001°28'1717.2
2017-Jan-20 10:32N 50°29' W 001°12'1515.5
2017-Jan-20 09:34N 50°43' W 001°03'5 5.5
2017-Jan-20 08:33N 50°49' W 001°06'0 0.0
2017-Jan-20 07:34N 50°49' W 001°06'0 0.0
2017-Jan-20 06:33N 50°49' W 001°06'7 6.8
2017-Jan-20 05:34N 50°42' W 001°03'1111.0
2017-Jan-20 04:33N 50°33' W 001°12'1310.8
2017-Jan-20 03:18N 50°22' W 001°24'811.2
2017-Jan-20 02:33N 50°15' W 001°31'1312.8
2017-Jan-20 01:33N 50°04' W 001°42'1413.7
2017-Jan-20 00:34N 49°52' W 001°53'1 0.1
2017-Jan-19 13:34N 49°51' W 001°53'1615.9
2017-Jan-19 12:33N 50°05' W 001°41'1916.1
2017-Jan-19 11:24N 50°20' W 001°23'1416.7
2017-Jan-19 10:33N 50°31' W 001°11'1414.1
2017-Jan-19 09:34N 50°45' W 001°05'4 4.0
2017-Jan-19 08:33N 50°49' W 001°06'0 0.0
2017-Jan-19 07:33N 50°49' W 001°06'0 0.0
2017-Jan-19 06:33N 50°49' W 001°06'7 7.0
2017-Jan-19 05:34N 50°42' W 001°02'1413.7
2017-Jan-19 04:31N 50°31' W 001°15'1414.9
2017-Jan-19 03:33N 50°19' W 001°28'1111.4
2017-Jan-19 02:33N 50°09' W 001°37'1212.1
2017-Jan-19 01:33N 49°59' W 001°47'1313.2
2017-Jan-19 00:33N 49°48' W 001°57'18 2.0
2017-Jan-18 15:16N 49°32' W 002°13'1618.5
2017-Jan-18 14:25N 49°46' W 002°01'1416.5
2017-Jan-18 13:33N 49°57' W 001°47'1616.1
2017-Jan-18 12:34N 50°10' W 001°33'1616.0
2017-Jan-18 11:32N 50°24' W 001°19'1515.7
2017-Jan-18 10:34N 50°37' W 001°05'1211.7
2017-Jan-18 09:34N 50°48' W 001°07'1 0.8
2017-Jan-18 08:33N 50°49' W 001°06'0 0.0
2017-Jan-18 07:33N 50°49' W 001°06'0 0.0
2017-Jan-18 06:34N 50°49' W 001°06'7 7.3
2017-Jan-18 05:33N 50°42' W 001°02'1313.3
2017-Jan-18 04:33N 50°31' W 001°14'1210.7
2017-Jan-18 03:27N 50°21' W 001°24'1011.0
2017-Jan-18 02:33N 50°13' W 001°32'1211.6
2017-Jan-18 01:34N 50°03' W 001°42'1312.5
2017-Jan-18 00:34N 49°52' W 001°52'9 0.8
2017-Jan-17 14:08N 49°46' W 002°01'1017.2
2017-Jan-17 13:34N 49°54' W 001°52'1616.2
2017-Jan-17 12:33N 50°07' W 001°38'2115.6
2017-Jan-17 11:14N 50°24' W 001°18'1015.2
2017-Jan-17 10:33N 50°32' W 001°09'1313.4
2017-Jan-17 09:33N 50°46' W 001°05'3 3.1
2017-Jan-17 08:33N 50°49' W 001°06'0 0.0
2017-Jan-17 07:33N 50°49' W 001°06'0 0.0
2017-Jan-17 06:33N 50°49' W 001°06'8 8.0
2017-Jan-17 05:33N 50°41' W 001°03'2912.3
2017-Jan-17 03:10N 50°18' W 001°32'1016.2
2017-Jan-17 02:34N 50°09' W 001°40'1717.4
2017-Jan-17 01:33N 49°54' W 001°53'11 1.1
2017-Jan-16 15:27N 49°45' W 002°02'1819.8
2017-Jan-16 14:33N 49°60' W 001°47'2117.9
2017-Jan-16 13:22N 50°18' W 001°29'1416.9
2017-Jan-16 12:33N 50°29' W 001°16'1616.0
2017-Jan-16 11:34N 50°42' W 001°02'7 7.4
2017-Jan-16 10:34N 50°49' W 001°06'0 0.0
2017-Jan-16 09:33N 50°49' W 001°06'4 4.0
2017-Jan-16 08:34N 50°45' W 001°06'1413.6
2017-Jan-16 07:33N 50°31' W 001°10'1717.1
2017-Jan-16 06:33N 50°17' W 001°25'1515.2
2017-Jan-16 05:33N 50°05' W 001°40'1414.2
2017-Jan-16 04:34N 49°54' W 001°52'26 1.8
2017-Jan-15 14:31N 49°31' W 002°11'1718.0
2017-Jan-15 13:33N 49°47' W 001°60'1717.5
2017-Jan-15 12:34N 50°01' W 001°45'1615.9
2017-Jan-15 11:33N 50°14' W 001°30'1514.9
2017-Jan-15 10:31N 50°27' W 001°16'1414.4
2017-Jan-15 09:33N 50°39' W 001°05'1010.0
2017-Jan-15 08:33N 50°49' W 001°06'0 0.0
2017-Jan-15 07:34N 50°49' W 001°06'0 0.2
2017-Jan-15 06:34N 50°49' W 001°06'7 7.3
2017-Jan-15 05:33N 50°42' W 001°01'1413.8
2017-Jan-15 04:31N 50°30' W 001°12'1211.3
2017-Jan-15 03:27N 50°22' W 001°26'910.3
2017-Jan-15 02:34N 50°13' W 001°31'1010.2
2017-Jan-15 01:34N 50°05' W 001°40'1110.9
2017-Jan-15 00:34N 49°56' W 001°50'12 1.2
2017-Jan-14 14:09N 49°46' W 002°01'1220.1
2017-Jan-14 13:33N 49°56' W 001°51'1918.5
2017-Jan-14 12:33N 50°11' W 001°34'2117.0
2017-Jan-14 11:21N 50°28' W 001°16'1215.8
2017-Jan-14 10:33N 50°39' W 001°05'10 9.9
2017-Jan-14 09:33N 50°49' W 001°06'0 0.0
2017-Jan-14 08:33N 50°49' W 001°06'0 0.0
2017-Jan-14 07:34N 50°49' W 001°06'4 4.5
2017-Jan-14 06:34N 50°44' W 001°04'1914.5
2017-Jan-14 05:14N 50°27' W 001°16'1115.6
2017-Jan-14 04:33N 50°18' W 001°26'1414.4
2017-Jan-14 03:34N 50°06' W 001°39'  

Dump ship's entire track history